<?xml version="1.0" encoding="UTF-8" standalone="no" ?>
<gpx xmlns="http://www.topografix.com/GPX/1/1" xmlns:xsi="http://www.w3.org/2001/XMLSchema-instance" xsi:schemaLocation="http://www.topografix.com/GPX/1/1 http://www.topografix.com/GPX/1/1/gpx.xsd" version="1.1" creator="VisuGPX - https://www.visugpx.com">
  <metadata>
    <name>GR20 - 3 - Asinau - Usciolu</name>
    <desc><![CDATA[Etape 3 entre Asinau - Usciolu]]></desc>
  </metadata>
  <trk>
    <name><![CDATA[GR20 - 3 - Asinau - Usciolu_1]]></name>
    <trkseg>
      <trkpt lat="41.84192" lon="9.21346">
        <ele>1546</ele>
        <time>2009-06-03T06:27:14Z</time>
      </trkpt>
      <trkpt lat="41.84191" lon="9.21301">
        <ele>1551</ele>
        <time>2009-06-03T06:28:14Z</time>
      </trkpt>
      <trkpt lat="41.84184" lon="9.21256">
        <ele>1555</ele>
        <time>2009-06-03T06:29:14Z</time>
      </trkpt>
      <trkpt lat="41.84171" lon="9.21222">
        <ele>1562</ele>
        <time>2009-06-03T06:30:14Z</time>
      </trkpt>
      <trkpt lat="41.84162" lon="9.21171">
        <ele>1569</ele>
        <time>2009-06-03T06:31:14Z</time>
      </trkpt>
      <trkpt lat="41.84176" lon="9.21144">
        <ele>1576</ele>
        <time>2009-06-03T06:32:14Z</time>
      </trkpt>
      <trkpt lat="41.84186" lon="9.21134">
        <ele>1583</ele>
        <time>2009-06-03T06:33:14Z</time>
      </trkpt>
      <trkpt lat="41.84208" lon="9.21127">
        <ele>1592</ele>
        <time>2009-06-03T06:34:14Z</time>
      </trkpt>
      <trkpt lat="41.84216" lon="9.21125">
        <ele>1600</ele>
        <time>2009-06-03T06:35:14Z</time>
      </trkpt>
      <trkpt lat="41.84237" lon="9.21125">
        <ele>1607</ele>
        <time>2009-06-03T06:36:14Z</time>
      </trkpt>
      <trkpt lat="41.84249" lon="9.2111">
        <ele>1616</ele>
        <time>2009-06-03T06:37:14Z</time>
      </trkpt>
      <trkpt lat="41.84254" lon="9.2112">
        <ele>1624</ele>
        <time>2009-06-03T06:38:14Z</time>
      </trkpt>
      <trkpt lat="41.84267" lon="9.21108">
        <ele>1631</ele>
        <time>2009-06-03T06:39:14Z</time>
      </trkpt>
      <trkpt lat="41.84264" lon="9.21106">
        <ele>1633</ele>
        <time>2009-06-03T06:40:14Z</time>
      </trkpt>
      <trkpt lat="41.84264" lon="9.21112">
        <ele>1633</ele>
        <time>2009-06-03T06:41:14Z</time>
      </trkpt>
      <trkpt lat="41.84262" lon="9.21112">
        <ele>1633</ele>
        <time>2009-06-03T06:42:14Z</time>
      </trkpt>
      <trkpt lat="41.84256" lon="9.2112">
        <ele>1634</ele>
        <time>2009-06-03T06:43:14Z</time>
      </trkpt>
      <trkpt lat="41.84263" lon="9.21114">
        <ele>1634</ele>
        <time>2009-06-03T06:44:14Z</time>
      </trkpt>
      <trkpt lat="41.84278" lon="9.21114">
        <ele>1640</ele>
        <time>2009-06-03T06:45:14Z</time>
      </trkpt>
      <trkpt lat="41.8429" lon="9.21105">
        <ele>1648</ele>
        <time>2009-06-03T06:46:14Z</time>
      </trkpt>
      <trkpt lat="41.84303" lon="9.21094">
        <ele>1656</ele>
        <time>2009-06-03T06:47:14Z</time>
      </trkpt>
      <trkpt lat="41.84311" lon="9.21103">
        <ele>1663</ele>
        <time>2009-06-03T06:48:14Z</time>
      </trkpt>
      <trkpt lat="41.84333" lon="9.21096">
        <ele>1670</ele>
        <time>2009-06-03T06:49:14Z</time>
      </trkpt>
      <trkpt lat="41.84335" lon="9.21091">
        <ele>1677</ele>
        <time>2009-06-03T06:50:14Z</time>
      </trkpt>
      <trkpt lat="41.84357" lon="9.21076">
        <ele>1684</ele>
        <time>2009-06-03T06:51:14Z</time>
      </trkpt>
      <trkpt lat="41.84371" lon="9.21051">
        <ele>1690</ele>
        <time>2009-06-03T06:52:14Z</time>
      </trkpt>
      <trkpt lat="41.84384" lon="9.21019">
        <ele>1697</ele>
        <time>2009-06-03T06:53:14Z</time>
      </trkpt>
      <trkpt lat="41.84398" lon="9.20991">
        <ele>1703</ele>
        <time>2009-06-03T06:54:14Z</time>
      </trkpt>
      <trkpt lat="41.8442" lon="9.20948">
        <ele>1710</ele>
        <time>2009-06-03T06:55:14Z</time>
      </trkpt>
      <trkpt lat="41.84436" lon="9.20922">
        <ele>1718</ele>
        <time>2009-06-03T06:56:14Z</time>
      </trkpt>
      <trkpt lat="41.84441" lon="9.20902">
        <ele>1724</ele>
        <time>2009-06-03T06:57:14Z</time>
      </trkpt>
      <trkpt lat="41.84458" lon="9.20906">
        <ele>1732</ele>
        <time>2009-06-03T06:58:14Z</time>
      </trkpt>
      <trkpt lat="41.84467" lon="9.20898">
        <ele>1740</ele>
        <time>2009-06-03T06:59:14Z</time>
      </trkpt>
      <trkpt lat="41.84481" lon="9.20887">
        <ele>1747</ele>
        <time>2009-06-03T07:00:14Z</time>
      </trkpt>
      <trkpt lat="41.84478" lon="9.20883">
        <ele>1752</ele>
        <time>2009-06-03T07:01:14Z</time>
      </trkpt>
      <trkpt lat="41.84484" lon="9.20876">
        <ele>1754</ele>
        <time>2009-06-03T07:02:14Z</time>
      </trkpt>
      <trkpt lat="41.84481" lon="9.20874">
        <ele>1758</ele>
        <time>2009-06-03T07:03:14Z</time>
      </trkpt>
      <trkpt lat="41.84496" lon="9.20864">
        <ele>1763</ele>
        <time>2009-06-03T07:04:14Z</time>
      </trkpt>
      <trkpt lat="41.84503" lon="9.20843">
        <ele>1772</ele>
        <time>2009-06-03T07:05:14Z</time>
      </trkpt>
      <trkpt lat="41.8453" lon="9.20841">
        <ele>1779</ele>
        <time>2009-06-03T07:06:14Z</time>
      </trkpt>
      <trkpt lat="41.84538" lon="9.20822">
        <ele>1787</ele>
        <time>2009-06-03T07:07:14Z</time>
      </trkpt>
      <trkpt lat="41.84542" lon="9.20832">
        <ele>1794</ele>
        <time>2009-06-03T07:08:14Z</time>
      </trkpt>
      <trkpt lat="41.84567" lon="9.20816">
        <ele>1802</ele>
        <time>2009-06-03T07:09:14Z</time>
      </trkpt>
      <trkpt lat="41.84565" lon="9.20829">
        <ele>1808</ele>
        <time>2009-06-03T07:10:14Z</time>
      </trkpt>
      <trkpt lat="41.84573" lon="9.20819">
        <ele>1815</ele>
        <time>2009-06-03T07:11:14Z</time>
      </trkpt>
      <trkpt lat="41.8461" lon="9.20801">
        <ele>1822</ele>
        <time>2009-06-03T07:12:14Z</time>
      </trkpt>
      <trkpt lat="41.84613" lon="9.20801">
        <ele>1829</ele>
        <time>2009-06-03T07:13:14Z</time>
      </trkpt>
      <trkpt lat="41.84626" lon="9.20795">
        <ele>1836</ele>
        <time>2009-06-03T07:14:14Z</time>
      </trkpt>
      <trkpt lat="41.84632" lon="9.20809">
        <ele>1843</ele>
        <time>2009-06-03T07:15:14Z</time>
      </trkpt>
      <trkpt lat="41.84639" lon="9.20823">
        <ele>1849</ele>
        <time>2009-06-03T07:16:14Z</time>
      </trkpt>
      <trkpt lat="41.84643" lon="9.20808">
        <ele>1857</ele>
        <time>2009-06-03T07:17:14Z</time>
      </trkpt>
      <trkpt lat="41.84656" lon="9.20775">
        <ele>1865</ele>
        <time>2009-06-03T07:18:14Z</time>
      </trkpt>
      <trkpt lat="41.84672" lon="9.20786">
        <ele>1872</ele>
        <time>2009-06-03T07:19:14Z</time>
      </trkpt>
      <trkpt lat="41.84662" lon="9.2079">
        <ele>1880</ele>
        <time>2009-06-03T07:20:14Z</time>
      </trkpt>
      <trkpt lat="41.84683" lon="9.20764">
        <ele>1886</ele>
        <time>2009-06-03T07:21:14Z</time>
      </trkpt>
      <trkpt lat="41.84685" lon="9.20757">
        <ele>1894</ele>
        <time>2009-06-03T07:22:14Z</time>
      </trkpt>
      <trkpt lat="41.84709" lon="9.20755">
        <ele>1900</ele>
        <time>2009-06-03T07:23:14Z</time>
      </trkpt>
      <trkpt lat="41.84708" lon="9.20766">
        <ele>1904</ele>
        <time>2009-06-03T07:24:14Z</time>
      </trkpt>
      <trkpt lat="41.8472" lon="9.20762">
        <ele>1910</ele>
        <time>2009-06-03T07:25:14Z</time>
      </trkpt>
      <trkpt lat="41.84733" lon="9.20754">
        <ele>1916</ele>
        <time>2009-06-03T07:26:14Z</time>
      </trkpt>
      <trkpt lat="41.8473" lon="9.20737">
        <ele>1924</ele>
        <time>2009-06-03T07:27:14Z</time>
      </trkpt>
      <trkpt lat="41.84727" lon="9.20723">
        <ele>1929</ele>
        <time>2009-06-03T07:28:14Z</time>
      </trkpt>
      <trkpt lat="41.84717" lon="9.20685">
        <ele>1934</ele>
        <time>2009-06-03T07:29:14Z</time>
      </trkpt>
      <trkpt lat="41.84706" lon="9.20661">
        <ele>1941</ele>
        <time>2009-06-03T07:30:14Z</time>
      </trkpt>
      <trkpt lat="41.84711" lon="9.20657">
        <ele>1946</ele>
        <time>2009-06-03T07:31:14Z</time>
      </trkpt>
      <trkpt lat="41.84703" lon="9.20629">
        <ele>1953</ele>
        <time>2009-06-03T07:32:14Z</time>
      </trkpt>
      <trkpt lat="41.84689" lon="9.20617">
        <ele>1961</ele>
        <time>2009-06-03T07:33:14Z</time>
      </trkpt>
      <trkpt lat="41.84684" lon="9.20592">
        <ele>1967</ele>
        <time>2009-06-03T07:34:14Z</time>
      </trkpt>
      <trkpt lat="41.84667" lon="9.20545">
        <ele>1971</ele>
        <time>2009-06-03T07:35:14Z</time>
      </trkpt>
      <trkpt lat="41.84644" lon="9.20517">
        <ele>1971</ele>
        <time>2009-06-03T07:36:14Z</time>
      </trkpt>
      <trkpt lat="41.84625" lon="9.205">
        <ele>1966</ele>
        <time>2009-06-03T07:37:14Z</time>
      </trkpt>
      <trkpt lat="41.84619" lon="9.20472">
        <ele>1969</ele>
        <time>2009-06-03T07:38:14Z</time>
      </trkpt>
      <trkpt lat="41.84622" lon="9.2044">
        <ele>1976</ele>
        <time>2009-06-03T07:39:14Z</time>
      </trkpt>
      <trkpt lat="41.84621" lon="9.20423">
        <ele>1984</ele>
        <time>2009-06-03T07:40:14Z</time>
      </trkpt>
      <trkpt lat="41.84622" lon="9.2041">
        <ele>1991</ele>
        <time>2009-06-03T07:41:14Z</time>
      </trkpt>
      <trkpt lat="41.84608" lon="9.20386">
        <ele>1997</ele>
        <time>2009-06-03T07:42:14Z</time>
      </trkpt>
      <trkpt lat="41.84614" lon="9.20388">
        <ele>1998</ele>
        <time>2009-06-03T07:43:14Z</time>
      </trkpt>
      <trkpt lat="41.84601" lon="9.20367">
        <ele>2000</ele>
        <time>2009-06-03T07:44:14Z</time>
      </trkpt>
      <trkpt lat="41.84607" lon="9.2037">
        <ele>2003</ele>
        <time>2009-06-03T07:45:14Z</time>
      </trkpt>
      <trkpt lat="41.84664" lon="9.20374">
        <ele>2004</ele>
        <time>2009-06-03T07:46:14Z</time>
      </trkpt>
      <trkpt lat="41.84713" lon="9.20385">
        <ele>2006</ele>
        <time>2009-06-03T07:47:14Z</time>
      </trkpt>
      <trkpt lat="41.8472" lon="9.20394">
        <ele>2013</ele>
        <time>2009-06-03T07:48:14Z</time>
      </trkpt>
      <trkpt lat="41.84728" lon="9.20437">
        <ele>2021</ele>
        <time>2009-06-03T07:49:14Z</time>
      </trkpt>
      <trkpt lat="41.84744" lon="9.20448">
        <ele>2029</ele>
        <time>2009-06-03T07:50:14Z</time>
      </trkpt>
      <trkpt lat="41.84766" lon="9.20468">
        <ele>2035</ele>
        <time>2009-06-03T07:51:14Z</time>
      </trkpt>
      <trkpt lat="41.84803" lon="9.20504">
        <ele>2041</ele>
        <time>2009-06-03T07:52:14Z</time>
      </trkpt>
      <trkpt lat="41.84822" lon="9.20531">
        <ele>2051</ele>
        <time>2009-06-03T07:53:14Z</time>
      </trkpt>
      <trkpt lat="41.84849" lon="9.20562">
        <ele>2057</ele>
        <time>2009-06-03T07:54:14Z</time>
      </trkpt>
      <trkpt lat="41.84856" lon="9.20568">
        <ele>2062</ele>
        <time>2009-06-03T07:55:14Z</time>
      </trkpt>
      <trkpt lat="41.84879" lon="9.206">
        <ele>2064</ele>
        <time>2009-06-03T07:56:14Z</time>
      </trkpt>
      <trkpt lat="41.84888" lon="9.20621">
        <ele>2069</ele>
        <time>2009-06-03T07:57:14Z</time>
      </trkpt>
      <trkpt lat="41.84897" lon="9.20613">
        <ele>2076</ele>
        <time>2009-06-03T07:58:14Z</time>
      </trkpt>
      <trkpt lat="41.84906" lon="9.20623">
        <ele>2078</ele>
        <time>2009-06-03T07:59:14Z</time>
      </trkpt>
      <trkpt lat="41.8491" lon="9.20643">
        <ele>2081</ele>
        <time>2009-06-03T08:00:14Z</time>
      </trkpt>
      <trkpt lat="41.84941" lon="9.2067">
        <ele>2089</ele>
        <time>2009-06-03T08:01:14Z</time>
      </trkpt>
      <trkpt lat="41.84955" lon="9.207">
        <ele>2096</ele>
        <time>2009-06-03T08:02:14Z</time>
      </trkpt>
      <trkpt lat="41.84963" lon="9.20744">
        <ele>2104</ele>
        <time>2009-06-03T08:03:14Z</time>
      </trkpt>
      <trkpt lat="41.85023" lon="9.20766">
        <ele>2104</ele>
        <time>2009-06-03T08:04:14Z</time>
      </trkpt>
      <trkpt lat="41.85064" lon="9.20756">
        <ele>2098</ele>
        <time>2009-06-03T08:05:14Z</time>
      </trkpt>
      <trkpt lat="41.85099" lon="9.20757">
        <ele>2089</ele>
        <time>2009-06-03T08:06:14Z</time>
      </trkpt>
      <trkpt lat="41.8514" lon="9.20763">
        <ele>2079</ele>
        <time>2009-06-03T08:07:14Z</time>
      </trkpt>
      <trkpt lat="41.85185" lon="9.20778">
        <ele>2070</ele>
        <time>2009-06-03T08:08:14Z</time>
      </trkpt>
      <trkpt lat="41.85225" lon="9.20774">
        <ele>2063</ele>
        <time>2009-06-03T08:09:14Z</time>
      </trkpt>
      <trkpt lat="41.85256" lon="9.20748">
        <ele>2050</ele>
        <time>2009-06-03T08:10:14Z</time>
      </trkpt>
      <trkpt lat="41.85312" lon="9.20729">
        <ele>2039</ele>
        <time>2009-06-03T08:11:14Z</time>
      </trkpt>
      <trkpt lat="41.85361" lon="9.20718">
        <ele>2033</ele>
        <time>2009-06-03T08:12:14Z</time>
      </trkpt>
      <trkpt lat="41.85398" lon="9.20699">
        <ele>2021</ele>
        <time>2009-06-03T08:13:14Z</time>
      </trkpt>
      <trkpt lat="41.85426" lon="9.20671">
        <ele>2011</ele>
        <time>2009-06-03T08:14:14Z</time>
      </trkpt>
      <trkpt lat="41.85471" lon="9.20615">
        <ele>2000</ele>
        <time>2009-06-03T08:15:14Z</time>
      </trkpt>
      <trkpt lat="41.8552" lon="9.20586">
        <ele>1989</ele>
        <time>2009-06-03T08:16:14Z</time>
      </trkpt>
      <trkpt lat="41.85579" lon="9.20574">
        <ele>1981</ele>
        <time>2009-06-03T08:17:14Z</time>
      </trkpt>
      <trkpt lat="41.85609" lon="9.20519">
        <ele>1972</ele>
        <time>2009-06-03T08:18:14Z</time>
      </trkpt>
      <trkpt lat="41.85663" lon="9.20474">
        <ele>1969</ele>
        <time>2009-06-03T08:19:14Z</time>
      </trkpt>
      <trkpt lat="41.85715" lon="9.20422">
        <ele>1961</ele>
        <time>2009-06-03T08:20:14Z</time>
      </trkpt>
      <trkpt lat="41.85765" lon="9.20347">
        <ele>1957</ele>
        <time>2009-06-03T08:21:14Z</time>
      </trkpt>
      <trkpt lat="41.85819" lon="9.203">
        <ele>1957</ele>
        <time>2009-06-03T08:22:14Z</time>
      </trkpt>
      <trkpt lat="41.85889" lon="9.20315">
        <ele>1954</ele>
        <time>2009-06-03T08:23:14Z</time>
      </trkpt>
      <trkpt lat="41.85941" lon="9.20326">
        <ele>1952</ele>
        <time>2009-06-03T08:24:14Z</time>
      </trkpt>
      <trkpt lat="41.86004" lon="9.20337">
        <ele>1947</ele>
        <time>2009-06-03T08:25:14Z</time>
      </trkpt>
      <trkpt lat="41.86053" lon="9.20369">
        <ele>1947</ele>
        <time>2009-06-03T08:26:14Z</time>
      </trkpt>
      <trkpt lat="41.86076" lon="9.20433">
        <ele>1941</ele>
        <time>2009-06-03T08:27:14Z</time>
      </trkpt>
      <trkpt lat="41.86104" lon="9.2045">
        <ele>1940</ele>
        <time>2009-06-03T08:28:14Z</time>
      </trkpt>
      <trkpt lat="41.86164" lon="9.20484">
        <ele>1934</ele>
        <time>2009-06-03T08:29:14Z</time>
      </trkpt>
      <trkpt lat="41.86219" lon="9.20489">
        <ele>1923</ele>
        <time>2009-06-03T08:30:14Z</time>
      </trkpt>
      <trkpt lat="41.86259" lon="9.20513">
        <ele>1910</ele>
        <time>2009-06-03T08:31:14Z</time>
      </trkpt>
      <trkpt lat="41.86307" lon="9.20535">
        <ele>1897</ele>
        <time>2009-06-03T08:32:14Z</time>
      </trkpt>
      <trkpt lat="41.86333" lon="9.20554">
        <ele>1885</ele>
        <time>2009-06-03T08:33:14Z</time>
      </trkpt>
      <trkpt lat="41.86355" lon="9.20597">
        <ele>1871</ele>
        <time>2009-06-03T08:34:14Z</time>
      </trkpt>
      <trkpt lat="41.86377" lon="9.20635">
        <ele>1858</ele>
        <time>2009-06-03T08:35:14Z</time>
      </trkpt>
      <trkpt lat="41.864" lon="9.20677">
        <ele>1846</ele>
        <time>2009-06-03T08:36:14Z</time>
      </trkpt>
      <trkpt lat="41.8644" lon="9.207">
        <ele>1832</ele>
        <time>2009-06-03T08:37:14Z</time>
      </trkpt>
      <trkpt lat="41.86485" lon="9.20728">
        <ele>1817</ele>
        <time>2009-06-03T08:38:14Z</time>
      </trkpt>
      <trkpt lat="41.86535" lon="9.2075">
        <ele>1802</ele>
        <time>2009-06-03T08:39:14Z</time>
      </trkpt>
      <trkpt lat="41.86577" lon="9.20704">
        <ele>1790</ele>
        <time>2009-06-03T08:40:14Z</time>
      </trkpt>
      <trkpt lat="41.86618" lon="9.20611">
        <ele>1778</ele>
        <time>2009-06-03T08:41:14Z</time>
      </trkpt>
      <trkpt lat="41.86628" lon="9.2053">
        <ele>1768</ele>
        <time>2009-06-03T08:42:14Z</time>
      </trkpt>
      <trkpt lat="41.86634" lon="9.20442">
        <ele>1759</ele>
        <time>2009-06-03T08:43:14Z</time>
      </trkpt>
      <trkpt lat="41.86656" lon="9.20354">
        <ele>1753</ele>
        <time>2009-06-03T08:44:14Z</time>
      </trkpt>
      <trkpt lat="41.86685" lon="9.20273">
        <ele>1745</ele>
        <time>2009-06-03T08:45:14Z</time>
      </trkpt>
      <trkpt lat="41.86695" lon="9.20203">
        <ele>1733</ele>
        <time>2009-06-03T08:46:14Z</time>
      </trkpt>
      <trkpt lat="41.86673" lon="9.20116">
        <ele>1719</ele>
        <time>2009-06-03T08:47:14Z</time>
      </trkpt>
      <trkpt lat="41.86661" lon="9.20028">
        <ele>1706</ele>
        <time>2009-06-03T08:48:14Z</time>
      </trkpt>
      <trkpt lat="41.86659" lon="9.19954">
        <ele>1690</ele>
        <time>2009-06-03T08:49:14Z</time>
      </trkpt>
      <trkpt lat="41.86636" lon="9.19887">
        <ele>1676</ele>
        <time>2009-06-03T08:50:14Z</time>
      </trkpt>
      <trkpt lat="41.86634" lon="9.19829">
        <ele>1664</ele>
        <time>2009-06-03T08:51:14Z</time>
      </trkpt>
      <trkpt lat="41.86661" lon="9.19776">
        <ele>1651</ele>
        <time>2009-06-03T08:52:14Z</time>
      </trkpt>
      <trkpt lat="41.86657" lon="9.19725">
        <ele>1638</ele>
        <time>2009-06-03T08:53:14Z</time>
      </trkpt>
      <trkpt lat="41.86666" lon="9.19678">
        <ele>1626</ele>
        <time>2009-06-03T08:54:14Z</time>
      </trkpt>
      <trkpt lat="41.8667" lon="9.19605">
        <ele>1615</ele>
        <time>2009-06-03T08:55:14Z</time>
      </trkpt>
      <trkpt lat="41.86712" lon="9.1954">
        <ele>1605</ele>
        <time>2009-06-03T08:56:14Z</time>
      </trkpt>
      <trkpt lat="41.86751" lon="9.1948">
        <ele>1600</ele>
        <time>2009-06-03T08:57:14Z</time>
      </trkpt>
      <trkpt lat="41.86749" lon="9.19479">
        <ele>1600</ele>
        <time>2009-06-03T08:58:14Z</time>
      </trkpt>
      <trkpt lat="41.86752" lon="9.19479">
        <ele>1600</ele>
        <time>2009-06-03T08:59:14Z</time>
      </trkpt>
      <trkpt lat="41.86747" lon="9.19483">
        <ele>1601</ele>
        <time>2009-06-03T09:00:14Z</time>
      </trkpt>
      <trkpt lat="41.86749" lon="9.19479">
        <ele>1600</ele>
        <time>2009-06-03T09:01:14Z</time>
      </trkpt>
      <trkpt lat="41.86752" lon="9.19478">
        <ele>1601</ele>
        <time>2009-06-03T09:02:14Z</time>
      </trkpt>
      <trkpt lat="41.8675" lon="9.19481">
        <ele>1601</ele>
        <time>2009-06-03T09:03:14Z</time>
      </trkpt>
      <trkpt lat="41.86761" lon="9.19478">
        <ele>1601</ele>
        <time>2009-06-03T09:04:14Z</time>
      </trkpt>
      <trkpt lat="41.86801" lon="9.19422">
        <ele>1599</ele>
        <time>2009-06-03T09:05:14Z</time>
      </trkpt>
      <trkpt lat="41.86847" lon="9.19368">
        <ele>1592</ele>
        <time>2009-06-03T09:06:14Z</time>
      </trkpt>
      <trkpt lat="41.86889" lon="9.19296">
        <ele>1587</ele>
        <time>2009-06-03T09:07:14Z</time>
      </trkpt>
      <trkpt lat="41.86922" lon="9.1923">
        <ele>1577</ele>
        <time>2009-06-03T09:08:14Z</time>
      </trkpt>
      <trkpt lat="41.86934" lon="9.19153">
        <ele>1565</ele>
        <time>2009-06-03T09:09:14Z</time>
      </trkpt>
      <trkpt lat="41.86961" lon="9.19093">
        <ele>1551</ele>
        <time>2009-06-03T09:10:14Z</time>
      </trkpt>
      <trkpt lat="41.86992" lon="9.19037">
        <ele>1540</ele>
        <time>2009-06-03T09:11:14Z</time>
      </trkpt>
      <trkpt lat="41.87041" lon="9.19041">
        <ele>1527</ele>
        <time>2009-06-03T09:12:14Z</time>
      </trkpt>
      <trkpt lat="41.8711" lon="9.19014">
        <ele>1515</ele>
        <time>2009-06-03T09:13:14Z</time>
      </trkpt>
      <trkpt lat="41.87163" lon="9.18985">
        <ele>1503</ele>
        <time>2009-06-03T09:14:14Z</time>
      </trkpt>
      <trkpt lat="41.87166" lon="9.18929">
        <ele>1487</ele>
        <time>2009-06-03T09:15:14Z</time>
      </trkpt>
      <trkpt lat="41.87184" lon="9.1889">
        <ele>1471</ele>
        <time>2009-06-03T09:16:14Z</time>
      </trkpt>
      <trkpt lat="41.87223" lon="9.18854">
        <ele>1457</ele>
        <time>2009-06-03T09:17:14Z</time>
      </trkpt>
      <trkpt lat="41.87235" lon="9.18846">
        <ele>1451</ele>
        <time>2009-06-03T09:18:14Z</time>
      </trkpt>
      <trkpt lat="41.87258" lon="9.18783">
        <ele>1445</ele>
        <time>2009-06-03T09:19:14Z</time>
      </trkpt>
      <trkpt lat="41.87221" lon="9.18724">
        <ele>1432</ele>
        <time>2009-06-03T09:20:14Z</time>
      </trkpt>
      <trkpt lat="41.87152" lon="9.18681">
        <ele>1425</ele>
        <time>2009-06-03T09:21:14Z</time>
      </trkpt>
      <trkpt lat="41.87136" lon="9.18681">
        <ele>1423</ele>
        <time>2009-06-03T09:22:14Z</time>
      </trkpt>
      <trkpt lat="41.87126" lon="9.18666">
        <ele>1423</ele>
        <time>2009-06-03T09:23:14Z</time>
      </trkpt>
      <trkpt lat="41.8713" lon="9.18626">
        <ele>1421</ele>
        <time>2009-06-03T09:24:14Z</time>
      </trkpt>
      <trkpt lat="41.87191" lon="9.18576">
        <ele>1420</ele>
        <time>2009-06-03T09:25:14Z</time>
      </trkpt>
      <trkpt lat="41.87213" lon="9.18507">
        <ele>1426</ele>
        <time>2009-06-03T09:26:14Z</time>
      </trkpt>
      <trkpt lat="41.87251" lon="9.18451">
        <ele>1430</ele>
        <time>2009-06-03T09:27:14Z</time>
      </trkpt>
      <trkpt lat="41.87319" lon="9.18431">
        <ele>1435</ele>
        <time>2009-06-03T09:28:14Z</time>
      </trkpt>
      <trkpt lat="41.87376" lon="9.18409">
        <ele>1440</ele>
        <time>2009-06-03T09:29:14Z</time>
      </trkpt>
      <trkpt lat="41.87415" lon="9.18377">
        <ele>1448</ele>
        <time>2009-06-03T09:30:14Z</time>
      </trkpt>
      <trkpt lat="41.87456" lon="9.18325">
        <ele>1455</ele>
        <time>2009-06-03T09:31:14Z</time>
      </trkpt>
      <trkpt lat="41.87495" lon="9.18295">
        <ele>1455</ele>
        <time>2009-06-03T09:32:14Z</time>
      </trkpt>
      <trkpt lat="41.87533" lon="9.1827">
        <ele>1447</ele>
        <time>2009-06-03T09:33:14Z</time>
      </trkpt>
      <trkpt lat="41.87579" lon="9.18221">
        <ele>1443</ele>
        <time>2009-06-03T09:34:14Z</time>
      </trkpt>
      <trkpt lat="41.87609" lon="9.18184">
        <ele>1437</ele>
        <time>2009-06-03T09:35:14Z</time>
      </trkpt>
      <trkpt lat="41.87636" lon="9.1814">
        <ele>1440</ele>
        <time>2009-06-03T09:36:14Z</time>
      </trkpt>
      <trkpt lat="41.87679" lon="9.18091">
        <ele>1446</ele>
        <time>2009-06-03T09:37:14Z</time>
      </trkpt>
      <trkpt lat="41.87727" lon="9.18091">
        <ele>1451</ele>
        <time>2009-06-03T09:38:14Z</time>
      </trkpt>
      <trkpt lat="41.87778" lon="9.18107">
        <ele>1457</ele>
        <time>2009-06-03T09:39:14Z</time>
      </trkpt>
      <trkpt lat="41.87841" lon="9.18111">
        <ele>1459</ele>
        <time>2009-06-03T09:40:14Z</time>
      </trkpt>
      <trkpt lat="41.87904" lon="9.18076">
        <ele>1456</ele>
        <time>2009-06-03T09:41:14Z</time>
      </trkpt>
      <trkpt lat="41.87952" lon="9.1804">
        <ele>1447</ele>
        <time>2009-06-03T09:42:14Z</time>
      </trkpt>
      <trkpt lat="41.88006" lon="9.1805">
        <ele>1436</ele>
        <time>2009-06-03T09:43:14Z</time>
      </trkpt>
      <trkpt lat="41.88059" lon="9.18046">
        <ele>1425</ele>
        <time>2009-06-03T09:44:14Z</time>
      </trkpt>
      <trkpt lat="41.88107" lon="9.18039">
        <ele>1419</ele>
        <time>2009-06-03T09:45:14Z</time>
      </trkpt>
      <trkpt lat="41.88167" lon="9.18036">
        <ele>1424</ele>
        <time>2009-06-03T09:46:14Z</time>
      </trkpt>
      <trkpt lat="41.88227" lon="9.18016">
        <ele>1429</ele>
        <time>2009-06-03T09:47:14Z</time>
      </trkpt>
      <trkpt lat="41.88271" lon="9.18028">
        <ele>1427</ele>
        <time>2009-06-03T09:48:14Z</time>
      </trkpt>
      <trkpt lat="41.88313" lon="9.18016">
        <ele>1432</ele>
        <time>2009-06-03T09:49:14Z</time>
      </trkpt>
      <trkpt lat="41.88365" lon="9.18017">
        <ele>1440</ele>
        <time>2009-06-03T09:50:14Z</time>
      </trkpt>
      <trkpt lat="41.88435" lon="9.18032">
        <ele>1445</ele>
        <time>2009-06-03T09:51:14Z</time>
      </trkpt>
      <trkpt lat="41.88502" lon="9.18066">
        <ele>1446</ele>
        <time>2009-06-03T09:52:14Z</time>
      </trkpt>
      <trkpt lat="41.88568" lon="9.18079">
        <ele>1450</ele>
        <time>2009-06-03T09:53:14Z</time>
      </trkpt>
      <trkpt lat="41.88639" lon="9.18098">
        <ele>1452</ele>
        <time>2009-06-03T09:54:14Z</time>
      </trkpt>
      <trkpt lat="41.88685" lon="9.18081">
        <ele>1459</ele>
        <time>2009-06-03T09:55:14Z</time>
      </trkpt>
      <trkpt lat="41.88745" lon="9.18053">
        <ele>1464</ele>
        <time>2009-06-03T09:56:14Z</time>
      </trkpt>
      <trkpt lat="41.88809" lon="9.18068">
        <ele>1464</ele>
        <time>2009-06-03T09:57:14Z</time>
      </trkpt>
      <trkpt lat="41.88838" lon="9.18059">
        <ele>1462</ele>
        <time>2009-06-03T09:58:14Z</time>
      </trkpt>
      <trkpt lat="41.88867" lon="9.1808">
        <ele>1458</ele>
        <time>2009-06-03T09:59:14Z</time>
      </trkpt>
      <trkpt lat="41.88906" lon="9.18109">
        <ele>1464</ele>
        <time>2009-06-03T10:00:14Z</time>
      </trkpt>
      <trkpt lat="41.88949" lon="9.18136">
        <ele>1470</ele>
        <time>2009-06-03T10:01:14Z</time>
      </trkpt>
      <trkpt lat="41.89014" lon="9.18147">
        <ele>1465</ele>
        <time>2009-06-03T10:02:14Z</time>
      </trkpt>
      <trkpt lat="41.8907" lon="9.18162">
        <ele>1465</ele>
        <time>2009-06-03T10:03:14Z</time>
      </trkpt>
      <trkpt lat="41.89117" lon="9.18131">
        <ele>1463</ele>
        <time>2009-06-03T10:04:14Z</time>
      </trkpt>
      <trkpt lat="41.89164" lon="9.18086">
        <ele>1466</ele>
        <time>2009-06-03T10:05:14Z</time>
      </trkpt>
      <trkpt lat="41.89208" lon="9.18049">
        <ele>1469</ele>
        <time>2009-06-03T10:06:14Z</time>
      </trkpt>
      <trkpt lat="41.89251" lon="9.18001">
        <ele>1473</ele>
        <time>2009-06-03T10:07:14Z</time>
      </trkpt>
      <trkpt lat="41.8928" lon="9.1797">
        <ele>1478</ele>
        <time>2009-06-03T10:08:14Z</time>
      </trkpt>
      <trkpt lat="41.89319" lon="9.17981">
        <ele>1486</ele>
        <time>2009-06-03T10:09:14Z</time>
      </trkpt>
      <trkpt lat="41.89332" lon="9.17984">
        <ele>1490</ele>
        <time>2009-06-03T10:10:14Z</time>
      </trkpt>
      <trkpt lat="41.89334" lon="9.17989">
        <ele>1489</ele>
        <time>2009-06-03T10:11:14Z</time>
      </trkpt>
      <trkpt lat="41.89333" lon="9.17987">
        <ele>1489</ele>
        <time>2009-06-03T10:12:14Z</time>
      </trkpt>
      <trkpt lat="41.89332" lon="9.17978">
        <ele>1489</ele>
        <time>2009-06-03T10:13:14Z</time>
      </trkpt>
      <trkpt lat="41.89326" lon="9.17977">
        <ele>1489</ele>
        <time>2009-06-03T10:14:14Z</time>
      </trkpt>
      <trkpt lat="41.89347" lon="9.17961">
        <ele>1490</ele>
        <time>2009-06-03T10:15:14Z</time>
      </trkpt>
      <trkpt lat="41.89379" lon="9.17954">
        <ele>1496</ele>
        <time>2009-06-03T10:16:14Z</time>
      </trkpt>
      <trkpt lat="41.89411" lon="9.17943">
        <ele>1504</ele>
        <time>2009-06-03T10:17:14Z</time>
      </trkpt>
      <trkpt lat="41.89433" lon="9.17936">
        <ele>1511</ele>
        <time>2009-06-03T10:18:14Z</time>
      </trkpt>
      <trkpt lat="41.89467" lon="9.17939">
        <ele>1519</ele>
        <time>2009-06-03T10:19:14Z</time>
      </trkpt>
      <trkpt lat="41.89491" lon="9.17927">
        <ele>1526</ele>
        <time>2009-06-03T10:20:14Z</time>
      </trkpt>
      <trkpt lat="41.89509" lon="9.17903">
        <ele>1531</ele>
        <time>2009-06-03T10:21:14Z</time>
      </trkpt>
      <trkpt lat="41.89548" lon="9.17872">
        <ele>1537</ele>
        <time>2009-06-03T10:22:14Z</time>
      </trkpt>
      <trkpt lat="41.89606" lon="9.17881">
        <ele>1542</ele>
        <time>2009-06-03T10:23:14Z</time>
      </trkpt>
      <trkpt lat="41.89674" lon="9.17888">
        <ele>1544</ele>
        <time>2009-06-03T10:24:14Z</time>
      </trkpt>
      <trkpt lat="41.89738" lon="9.17859">
        <ele>1543</ele>
        <time>2009-06-03T10:25:14Z</time>
      </trkpt>
      <trkpt lat="41.89783" lon="9.17894">
        <ele>1545</ele>
        <time>2009-06-03T10:26:14Z</time>
      </trkpt>
      <trkpt lat="41.89813" lon="9.17941">
        <ele>1552</ele>
        <time>2009-06-03T10:27:14Z</time>
      </trkpt>
      <trkpt lat="41.89834" lon="9.18025">
        <ele>1556</ele>
        <time>2009-06-03T10:28:14Z</time>
      </trkpt>
      <trkpt lat="41.89865" lon="9.1809">
        <ele>1556</ele>
        <time>2009-06-03T10:29:14Z</time>
      </trkpt>
      <trkpt lat="41.89899" lon="9.1813">
        <ele>1561</ele>
        <time>2009-06-03T10:30:14Z</time>
      </trkpt>
      <trkpt lat="41.89934" lon="9.18148">
        <ele>1568</ele>
        <time>2009-06-03T10:31:14Z</time>
      </trkpt>
      <trkpt lat="41.89924" lon="9.18157">
        <ele>1570</ele>
        <time>2009-06-03T10:32:14Z</time>
      </trkpt>
      <trkpt lat="41.89955" lon="9.18159">
        <ele>1570</ele>
        <time>2009-06-03T10:33:14Z</time>
      </trkpt>
      <trkpt lat="41.89996" lon="9.18192">
        <ele>1577</ele>
        <time>2009-06-03T10:34:14Z</time>
      </trkpt>
      <trkpt lat="41.90049" lon="9.18231">
        <ele>1582</ele>
        <time>2009-06-03T10:35:14Z</time>
      </trkpt>
      <trkpt lat="41.90106" lon="9.18224">
        <ele>1585</ele>
        <time>2009-06-03T10:36:14Z</time>
      </trkpt>
      <trkpt lat="41.90164" lon="9.18193">
        <ele>1585</ele>
        <time>2009-06-03T10:37:14Z</time>
      </trkpt>
      <trkpt lat="41.90186" lon="9.1822">
        <ele>1587</ele>
        <time>2009-06-03T10:38:14Z</time>
      </trkpt>
      <trkpt lat="41.90223" lon="9.18216">
        <ele>1583</ele>
        <time>2009-06-03T10:39:14Z</time>
      </trkpt>
      <trkpt lat="41.90245" lon="9.18157">
        <ele>1588</ele>
        <time>2009-06-03T10:40:14Z</time>
      </trkpt>
      <trkpt lat="41.90293" lon="9.18094">
        <ele>1589</ele>
        <time>2009-06-03T10:41:14Z</time>
      </trkpt>
      <trkpt lat="41.90333" lon="9.18025">
        <ele>1585</ele>
        <time>2009-06-03T10:42:14Z</time>
      </trkpt>
      <trkpt lat="41.90378" lon="9.17968">
        <ele>1579</ele>
        <time>2009-06-03T10:43:14Z</time>
      </trkpt>
      <trkpt lat="41.90424" lon="9.17908">
        <ele>1574</ele>
        <time>2009-06-03T10:44:14Z</time>
      </trkpt>
      <trkpt lat="41.9047" lon="9.17841">
        <ele>1564</ele>
        <time>2009-06-03T10:45:14Z</time>
      </trkpt>
      <trkpt lat="41.90527" lon="9.1782">
        <ele>1555</ele>
        <time>2009-06-03T10:46:14Z</time>
      </trkpt>
      <trkpt lat="41.90572" lon="9.17786">
        <ele>1551</ele>
        <time>2009-06-03T10:47:14Z</time>
      </trkpt>
      <trkpt lat="41.90571" lon="9.17712">
        <ele>1552</ele>
        <time>2009-06-03T10:48:14Z</time>
      </trkpt>
      <trkpt lat="41.90624" lon="9.17688">
        <ele>1555</ele>
        <time>2009-06-03T10:49:14Z</time>
      </trkpt>
      <trkpt lat="41.90668" lon="9.17703">
        <ele>1559</ele>
        <time>2009-06-03T10:50:14Z</time>
      </trkpt>
      <trkpt lat="41.90718" lon="9.17708">
        <ele>1564</ele>
        <time>2009-06-03T10:51:14Z</time>
      </trkpt>
      <trkpt lat="41.90757" lon="9.17738">
        <ele>1570</ele>
        <time>2009-06-03T10:52:14Z</time>
      </trkpt>
      <trkpt lat="41.90793" lon="9.17748">
        <ele>1578</ele>
        <time>2009-06-03T10:53:14Z</time>
      </trkpt>
      <trkpt lat="41.90811" lon="9.17761">
        <ele>1582</ele>
        <time>2009-06-03T10:54:14Z</time>
      </trkpt>
      <trkpt lat="41.90833" lon="9.17757">
        <ele>1587</ele>
        <time>2009-06-03T10:55:14Z</time>
      </trkpt>
      <trkpt lat="41.90851" lon="9.17724">
        <ele>1595</ele>
        <time>2009-06-03T10:56:14Z</time>
      </trkpt>
      <trkpt lat="41.9085" lon="9.17684">
        <ele>1603</ele>
        <time>2009-06-03T10:57:14Z</time>
      </trkpt>
      <trkpt lat="41.90859" lon="9.17641">
        <ele>1612</ele>
        <time>2009-06-03T10:58:14Z</time>
      </trkpt>
      <trkpt lat="41.90886" lon="9.17623">
        <ele>1619</ele>
        <time>2009-06-03T10:59:14Z</time>
      </trkpt>
      <trkpt lat="41.90926" lon="9.17618">
        <ele>1625</ele>
        <time>2009-06-03T11:00:14Z</time>
      </trkpt>
      <trkpt lat="41.9096" lon="9.17571">
        <ele>1628</ele>
        <time>2009-06-03T11:01:14Z</time>
      </trkpt>
      <trkpt lat="41.91009" lon="9.17568">
        <ele>1632</ele>
        <time>2009-06-03T11:02:14Z</time>
      </trkpt>
      <trkpt lat="41.91046" lon="9.17573">
        <ele>1639</ele>
        <time>2009-06-03T11:03:14Z</time>
      </trkpt>
      <trkpt lat="41.91063" lon="9.17601">
        <ele>1647</ele>
        <time>2009-06-03T11:04:14Z</time>
      </trkpt>
      <trkpt lat="41.91078" lon="9.17624">
        <ele>1654</ele>
        <time>2009-06-03T11:05:14Z</time>
      </trkpt>
      <trkpt lat="41.91073" lon="9.17681">
        <ele>1661</ele>
        <time>2009-06-03T11:06:14Z</time>
      </trkpt>
      <trkpt lat="41.9107" lon="9.17749">
        <ele>1665</ele>
        <time>2009-06-03T11:07:14Z</time>
      </trkpt>
      <trkpt lat="41.91118" lon="9.17811">
        <ele>1668</ele>
        <time>2009-06-03T11:08:14Z</time>
      </trkpt>
      <trkpt lat="41.91168" lon="9.17847">
        <ele>1670</ele>
        <time>2009-06-03T11:09:14Z</time>
      </trkpt>
      <trkpt lat="41.91191" lon="9.17869">
        <ele>1674</ele>
        <time>2009-06-03T11:10:14Z</time>
      </trkpt>
      <trkpt lat="41.91225" lon="9.17879">
        <ele>1681</ele>
        <time>2009-06-03T11:11:14Z</time>
      </trkpt>
      <trkpt lat="41.91236" lon="9.17904">
        <ele>1687</ele>
        <time>2009-06-03T11:12:14Z</time>
      </trkpt>
      <trkpt lat="41.91258" lon="9.1792">
        <ele>1695</ele>
        <time>2009-06-03T11:13:14Z</time>
      </trkpt>
      <trkpt lat="41.91271" lon="9.17928">
        <ele>1702</ele>
        <time>2009-06-03T11:14:14Z</time>
      </trkpt>
      <trkpt lat="41.91281" lon="9.17956">
        <ele>1708</ele>
        <time>2009-06-03T11:15:14Z</time>
      </trkpt>
      <trkpt lat="41.91312" lon="9.17991">
        <ele>1715</ele>
        <time>2009-06-03T11:16:14Z</time>
      </trkpt>
      <trkpt lat="41.91299" lon="9.18005">
        <ele>1720</ele>
        <time>2009-06-03T11:17:14Z</time>
      </trkpt>
      <trkpt lat="41.91325" lon="9.18022">
        <ele>1723</ele>
        <time>2009-06-03T11:18:14Z</time>
      </trkpt>
      <trkpt lat="41.91365" lon="9.18025">
        <ele>1727</ele>
        <time>2009-06-03T11:19:14Z</time>
      </trkpt>
      <trkpt lat="41.91392" lon="9.18059">
        <ele>1733</ele>
        <time>2009-06-03T11:20:14Z</time>
      </trkpt>
      <trkpt lat="41.91428" lon="9.18082">
        <ele>1738</ele>
        <time>2009-06-03T11:21:14Z</time>
      </trkpt>
      <trkpt lat="41.91453" lon="9.18101">
        <ele>1740</ele>
        <time>2009-06-03T11:22:14Z</time>
      </trkpt>
      <trkpt lat="41.91468" lon="9.18116">
        <ele>1746</ele>
        <time>2009-06-03T11:23:14Z</time>
      </trkpt>
      <trkpt lat="41.91466" lon="9.18119">
        <ele>1753</ele>
        <time>2009-06-03T11:24:14Z</time>
      </trkpt>
      <trkpt lat="41.91479" lon="9.18142">
        <ele>1759</ele>
        <time>2009-06-03T11:25:14Z</time>
      </trkpt>
      <trkpt lat="41.91476" lon="9.18173">
        <ele>1764</ele>
        <time>2009-06-03T11:26:14Z</time>
      </trkpt>
      <trkpt lat="41.91486" lon="9.18191">
        <ele>1770</ele>
        <time>2009-06-03T11:27:14Z</time>
      </trkpt>
      <trkpt lat="41.91499" lon="9.18232">
        <ele>1776</ele>
        <time>2009-06-03T11:28:14Z</time>
      </trkpt>
      <trkpt lat="41.91528" lon="9.18273">
        <ele>1781</ele>
        <time>2009-06-03T11:29:14Z</time>
      </trkpt>
      <trkpt lat="41.91533" lon="9.18302">
        <ele>1789</ele>
        <time>2009-06-03T11:30:14Z</time>
      </trkpt>
      <trkpt lat="41.91546" lon="9.18345">
        <ele>1780</ele>
        <time>2009-06-03T11:31:14Z</time>
      </trkpt>
      <trkpt lat="41.91574" lon="9.18382">
        <ele>1778</ele>
        <time>2009-06-03T11:32:14Z</time>
      </trkpt>
      <trkpt lat="41.91614" lon="9.18408">
        <ele>1773</ele>
        <time>2009-06-03T11:33:14Z</time>
      </trkpt>
      <trkpt lat="41.91658" lon="9.18426">
        <ele>1772</ele>
        <time>2009-06-03T11:34:14Z</time>
      </trkpt>
      <trkpt lat="41.91698" lon="9.18445">
        <ele>1776</ele>
        <time>2009-06-03T11:35:14Z</time>
      </trkpt>
      <trkpt lat="41.91749" lon="9.18454">
        <ele>1782</ele>
        <time>2009-06-03T11:36:14Z</time>
      </trkpt>
      <trkpt lat="41.91789" lon="9.18465">
        <ele>1786</ele>
        <time>2009-06-03T11:37:14Z</time>
      </trkpt>
      <trkpt lat="41.91817" lon="9.18475">
        <ele>1793</ele>
        <time>2009-06-03T11:38:14Z</time>
      </trkpt>
      <trkpt lat="41.91847" lon="9.18498">
        <ele>1796</ele>
        <time>2009-06-03T11:39:14Z</time>
      </trkpt>
      <trkpt lat="41.91852" lon="9.18524">
        <ele>1804</ele>
        <time>2009-06-03T11:40:14Z</time>
      </trkpt>
      <trkpt lat="41.91864" lon="9.1854">
        <ele>1804</ele>
        <time>2009-06-03T11:41:14Z</time>
      </trkpt>
      <trkpt lat="41.9189" lon="9.18574">
        <ele>1802</ele>
        <time>2009-06-03T11:42:14Z</time>
      </trkpt>
      <trkpt lat="41.91909" lon="9.18591">
        <ele>1805</ele>
        <time>2009-06-03T11:43:14Z</time>
      </trkpt>
      <trkpt lat="41.91934" lon="9.18595">
        <ele>1805</ele>
        <time>2009-06-03T11:44:14Z</time>
      </trkpt>
      <trkpt lat="41.9195" lon="9.18611">
        <ele>1797</ele>
        <time>2009-06-03T11:45:14Z</time>
      </trkpt>
      <trkpt lat="41.91959" lon="9.18609">
        <ele>1793</ele>
        <time>2009-06-03T11:46:14Z</time>
      </trkpt>
      <trkpt lat="41.91954" lon="9.18609">
        <ele>1791</ele>
        <time>2009-06-03T11:47:14Z</time>
      </trkpt>
      <trkpt lat="41.91955" lon="9.18611">
        <ele>1790</ele>
        <time>2009-06-03T11:48:14Z</time>
      </trkpt>
      <trkpt lat="41.91959" lon="9.18607">
        <ele>1789</ele>
        <time>2009-06-03T11:49:14Z</time>
      </trkpt>
      <trkpt lat="41.91961" lon="9.18606">
        <ele>1788</ele>
        <time>2009-06-03T11:50:14Z</time>
      </trkpt>
      <trkpt lat="41.91955" lon="9.1861">
        <ele>1790</ele>
        <time>2009-06-03T11:51:14Z</time>
      </trkpt>
      <trkpt lat="41.91956" lon="9.1861">
        <ele>1790</ele>
        <time>2009-06-03T11:52:14Z</time>
      </trkpt>
      <trkpt lat="41.91952" lon="9.18607">
        <ele>1793</ele>
        <time>2009-06-03T11:53:14Z</time>
      </trkpt>
      <trkpt lat="41.91943" lon="9.18605">
        <ele>1798</ele>
        <time>2009-06-03T11:54:14Z</time>
      </trkpt>
      <trkpt lat="41.91936" lon="9.186">
        <ele>1798</ele>
        <time>2009-06-03T11:55:14Z</time>
      </trkpt>
      <trkpt lat="41.91928" lon="9.18595">
        <ele>1797</ele>
        <time>2009-06-03T11:56:14Z</time>
      </trkpt>
      <trkpt lat="41.91928" lon="9.18614">
        <ele>1792</ele>
        <time>2009-06-03T11:57:14Z</time>
      </trkpt>
      <trkpt lat="41.91954" lon="9.1863">
        <ele>1785</ele>
        <time>2009-06-03T11:58:14Z</time>
      </trkpt>
      <trkpt lat="41.91971" lon="9.18633">
        <ele>1788</ele>
        <time>2009-06-03T11:59:14Z</time>
      </trkpt>
      <trkpt lat="41.91981" lon="9.18638">
        <ele>1786</ele>
        <time>2009-06-03T12:00:14Z</time>
      </trkpt>
      <trkpt lat="41.91993" lon="9.18644">
        <ele>1794</ele>
        <time>2009-06-03T12:01:14Z</time>
      </trkpt>
      <trkpt lat="41.92011" lon="9.18668">
        <ele>1801</ele>
        <time>2009-06-03T12:02:14Z</time>
      </trkpt>
      <trkpt lat="41.92047" lon="9.18711">
        <ele>1804</ele>
        <time>2009-06-03T12:03:14Z</time>
      </trkpt>
      <trkpt lat="41.92082" lon="9.1876">
        <ele>1801</ele>
        <time>2009-06-03T12:04:14Z</time>
      </trkpt>
      <trkpt lat="41.92099" lon="9.18826">
        <ele>1793</ele>
        <time>2009-06-03T12:05:14Z</time>
      </trkpt>
      <trkpt lat="41.9211" lon="9.18886">
        <ele>1796</ele>
        <time>2009-06-03T12:06:14Z</time>
      </trkpt>
      <trkpt lat="41.92115" lon="9.18909">
        <ele>1804</ele>
        <time>2009-06-03T12:07:14Z</time>
      </trkpt>
      <trkpt lat="41.92134" lon="9.18933">
        <ele>1812</ele>
        <time>2009-06-03T12:08:14Z</time>
      </trkpt>
      <trkpt lat="41.92161" lon="9.18977">
        <ele>1810</ele>
        <time>2009-06-03T12:09:14Z</time>
      </trkpt>
      <trkpt lat="41.92193" lon="9.19013">
        <ele>1804</ele>
        <time>2009-06-03T12:10:14Z</time>
      </trkpt>
      <trkpt lat="41.92233" lon="9.19033">
        <ele>1792</ele>
        <time>2009-06-03T12:11:14Z</time>
      </trkpt>
      <trkpt lat="41.92255" lon="9.1905">
        <ele>1780</ele>
        <time>2009-06-03T12:12:14Z</time>
      </trkpt>
      <trkpt lat="41.92289" lon="9.19068">
        <ele>1780</ele>
        <time>2009-06-03T12:13:14Z</time>
      </trkpt>
      <trkpt lat="41.92298" lon="9.19123">
        <ele>1784</ele>
        <time>2009-06-03T12:14:14Z</time>
      </trkpt>
      <trkpt lat="41.92339" lon="9.19158">
        <ele>1783</ele>
        <time>2009-06-03T12:15:14Z</time>
      </trkpt>
      <trkpt lat="41.92386" lon="9.19187">
        <ele>1778</ele>
        <time>2009-06-03T12:16:14Z</time>
      </trkpt>
      <trkpt lat="41.9241" lon="9.19224">
        <ele>1782</ele>
        <time>2009-06-03T12:17:14Z</time>
      </trkpt>
      <trkpt lat="41.92443" lon="9.19254">
        <ele>1777</ele>
        <time>2009-06-03T12:18:14Z</time>
      </trkpt>
      <trkpt lat="41.92455" lon="9.19293">
        <ele>1775</ele>
        <time>2009-06-03T12:19:14Z</time>
      </trkpt>
      <trkpt lat="41.92507" lon="9.19355">
        <ele>1782</ele>
        <time>2009-06-03T12:20:14Z</time>
      </trkpt>
      <trkpt lat="41.92553" lon="9.19405">
        <ele>1781</ele>
        <time>2009-06-03T12:21:14Z</time>
      </trkpt>
      <trkpt lat="41.92603" lon="9.19455">
        <ele>1770</ele>
        <time>2009-06-03T12:22:14Z</time>
      </trkpt>
      <trkpt lat="41.92626" lon="9.19521">
        <ele>1765</ele>
        <time>2009-06-03T12:23:14Z</time>
      </trkpt>
      <trkpt lat="41.92673" lon="9.19562">
        <ele>1760</ele>
        <time>2009-06-03T12:24:14Z</time>
      </trkpt>
      <trkpt lat="41.92715" lon="9.19607">
        <ele>1754</ele>
        <time>2009-06-03T12:25:14Z</time>
      </trkpt>
      <trkpt lat="41.9275" lon="9.19626">
        <ele>1752</ele>
        <time>2009-06-03T12:26:14Z</time>
      </trkpt>
      <trkpt lat="41.92797" lon="9.19647">
        <ele>1746</ele>
        <time>2009-06-03T12:27:14Z</time>
      </trkpt>
      <trkpt lat="41.92824" lon="9.19699">
        <ele>1737</ele>
        <time>2009-06-03T12:28:14Z</time>
      </trkpt>
      <trkpt lat="41.92831" lon="9.19714">
        <ele>1732</ele>
        <time>2009-06-03T12:29:14Z</time>
      </trkpt>
      <trkpt lat="41.92835" lon="9.19728">
        <ele>1730</ele>
        <time>2009-06-03T12:30:14Z</time>
      </trkpt>
      <trkpt lat="41.92851" lon="9.19759">
        <ele>1734</ele>
        <time>2009-06-03T12:31:14Z</time>
      </trkpt>
      <trkpt lat="41.9288" lon="9.19779">
        <ele>1736</ele>
        <time>2009-06-03T12:32:14Z</time>
      </trkpt>
      <trkpt lat="41.92927" lon="9.19816">
        <ele>1733</ele>
        <time>2009-06-03T12:33:14Z</time>
      </trkpt>
      <trkpt lat="41.92959" lon="9.19873">
        <ele>1725</ele>
        <time>2009-06-03T12:34:14Z</time>
      </trkpt>
      <trkpt lat="41.92999" lon="9.1989">
        <ele>1724</ele>
        <time>2009-06-03T12:35:14Z</time>
      </trkpt>
      <trkpt lat="41.92996" lon="9.19923">
        <ele>1719</ele>
        <time>2009-06-03T12:36:14Z</time>
      </trkpt>
      <trkpt lat="41.93014" lon="9.19955">
        <ele>1720</ele>
        <time>2009-06-03T12:37:14Z</time>
      </trkpt>
      <trkpt lat="41.93045" lon="9.19991">
        <ele>1720</ele>
        <time>2009-06-03T12:38:14Z</time>
      </trkpt>
      <trkpt lat="41.93061" lon="9.1999">
        <ele>1718</ele>
        <time>2009-06-03T12:39:14Z</time>
      </trkpt>
      <trkpt lat="41.93059" lon="9.20002">
        <ele>1721</ele>
        <time>2009-06-03T12:40:14Z</time>
      </trkpt>
      <trkpt lat="41.93083" lon="9.20029">
        <ele>1721</ele>
        <time>2009-06-03T12:41:14Z</time>
      </trkpt>
      <trkpt lat="41.93116" lon="9.20036">
        <ele>1721</ele>
        <time>2009-06-03T12:42:14Z</time>
      </trkpt>
      <trkpt lat="41.93138" lon="9.20065">
        <ele>1720</ele>
        <time>2009-06-03T12:43:14Z</time>
      </trkpt>
      <trkpt lat="41.93161" lon="9.20091">
        <ele>1710</ele>
        <time>2009-06-03T12:44:14Z</time>
      </trkpt>
      <trkpt lat="41.93167" lon="9.20093">
        <ele>1713</ele>
        <time>2009-06-03T12:45:14Z</time>
      </trkpt>
      <trkpt lat="41.93187" lon="9.20092">
        <ele>1716</ele>
        <time>2009-06-03T12:46:14Z</time>
      </trkpt>
      <trkpt lat="41.93203" lon="9.20117">
        <ele>1722</ele>
        <time>2009-06-03T12:47:14Z</time>
      </trkpt>
      <trkpt lat="41.93219" lon="9.20134">
        <ele>1730</ele>
        <time>2009-06-03T12:48:14Z</time>
      </trkpt>
      <trkpt lat="41.9324" lon="9.20176">
        <ele>1734</ele>
        <time>2009-06-03T12:49:14Z</time>
      </trkpt>
      <trkpt lat="41.93268" lon="9.2022">
        <ele>1731</ele>
        <time>2009-06-03T12:50:14Z</time>
      </trkpt>
      <trkpt lat="41.93292" lon="9.20245">
        <ele>1732</ele>
        <time>2009-06-03T12:51:14Z</time>
      </trkpt>
      <trkpt lat="41.93312" lon="9.20248">
        <ele>1738</ele>
        <time>2009-06-03T12:52:14Z</time>
      </trkpt>
      <trkpt lat="41.93328" lon="9.2024">
        <ele>1747</ele>
        <time>2009-06-03T12:53:14Z</time>
      </trkpt>
      <trkpt lat="41.93335" lon="9.20239">
        <ele>1752</ele>
        <time>2009-06-03T12:54:14Z</time>
      </trkpt>
      <trkpt lat="41.93334" lon="9.20241">
        <ele>1754</ele>
        <time>2009-06-03T12:56:14Z</time>
      </trkpt>
      <trkpt lat="41.93334" lon="9.20239">
        <ele>1754</ele>
        <time>2009-06-03T12:57:14Z</time>
      </trkpt>
      <trkpt lat="41.93334" lon="9.20243">
        <ele>1753</ele>
        <time>2009-06-03T12:58:14Z</time>
      </trkpt>
      <trkpt lat="41.93343" lon="9.20264">
        <ele>1753</ele>
        <time>2009-06-03T12:59:14Z</time>
      </trkpt>
      <trkpt lat="41.93355" lon="9.20277">
        <ele>1754</ele>
        <time>2009-06-03T13:00:14Z</time>
      </trkpt>
      <trkpt lat="41.93376" lon="9.20299">
        <ele>1759</ele>
        <time>2009-06-03T13:01:14Z</time>
      </trkpt>
      <trkpt lat="41.93413" lon="9.20326">
        <ele>1765</ele>
        <time>2009-06-03T13:02:14Z</time>
      </trkpt>
      <trkpt lat="41.93452" lon="9.20357">
        <ele>1768</ele>
        <time>2009-06-03T13:03:14Z</time>
      </trkpt>
      <trkpt lat="41.93458" lon="9.20375">
        <ele>1769</ele>
        <time>2009-06-03T13:04:14Z</time>
      </trkpt>
      <trkpt lat="41.9348" lon="9.20419">
        <ele>1762</ele>
        <time>2009-06-03T13:05:14Z</time>
      </trkpt>
      <trkpt lat="41.93509" lon="9.20474">
        <ele>1752</ele>
        <time>2009-06-03T13:06:14Z</time>
      </trkpt>
      <trkpt lat="41.93518" lon="9.20516">
        <ele>1745</ele>
        <time>2009-06-03T13:07:14Z</time>
      </trkpt>
      <trkpt lat="41.93524" lon="9.20571">
        <ele>1736</ele>
        <time>2009-06-03T13:08:14Z</time>
      </trkpt>
    </trkseg>
  </trk>
</gpx>